Time;durP1;ratioP1;P1;durP2;ratioP2;P2;SDS_P1;SDS_P2;PMS_P1;PMS_P2;Temp;Humidity;BMP_temperature;BMP_pressure;BME280_temperature;BME280_humidity;BME280_pressure;Samples;Min_cycle;Max_cycle;Signal;HPM_P1;HPM_P2
2022/05/17 00:01:04;;;;;;;;;7.00;6.00;;;;;19.37;62.61;101328.44;5091857;27;45253;-83
2022/05/17 00:03:30;;;;;;;;;7.25;7.00;;;;;19.54;63.46;101363.22;5110500;27;45181;-83
2022/05/17 00:05:56;;;;;;;;;7.00;6.50;;;;;19.45;63.25;101358.69;5110036;27;45821;-83
2022/05/17 00:08:22;;;;;;;;;5.75;5.50;;;;;19.31;62.94;101337.28;5092283;27;45134;-83
2022/05/17 00:10:47;;;;;;;;;6.00;6.00;;;;;19.26;63.33;101331.00;5099659;27;45321;-83
2022/05/17 00:13:14;;;;;;;;;5.00;5.00;;;;;19.47;63.72;101364.94;5131209;27;45518;-83
2022/05/17 00:15:45;;;;;;;;;7.50;7.25;;;;;19.12;63.56;101305.13;5127094;27;45231;-83
2022/05/17 00:18:11;;;;;;;;;6.50;6.00;;;;;19.23;63.90;101330.09;5110887;27;45079;-83
2022/05/17 00:20:39;;;;;;;;;6.25;6.00;;;;;19.07;64.02;101307.75;5109656;27;45328;-83
2022/05/17 00:23:05;;;;;;;;;8.50;6.00;;;;;19.19;64.00;101334.50;5110579;27;45414;-83
2022/05/17 00:25:30;;;;;;;;;6.00;6.00;;;;;18.99;63.51;101307.66;5110523;27;45328;-82
2022/05/17 00:27:55;;;;;;;;;8.00;7.00;;;;;18.98;63.82;101307.66;5110790;27;45082;-83
2022/05/17 00:30:21;;;;;;;;;7.50;7.25;;;;;19.14;64.38;101338.00;5110132;27;45280;-82
2022/05/17 00:32:46;;;;;;;;;6.25;6.00;;;;;19.25;64.16;101365.63;5110200;27;45930;-83
2022/05/17 00:35:12;;;;;;;;;9.00;8.50;;;;;18.94;64.46;101305.84;5091260;27;45086;-83
2022/05/17 00:37:37;;;;;;;;;8.00;7.50;;;;;19.17;63.94;101354.03;5110078;27;45236;-83
2022/05/17 00:40:05;;;;;;;;;9.00;8.00;;;;;19.19;64.34;101360.25;5110438;27;45082;-84
2022/05/17 00:42:30;;;;;;;;;7.75;6.00;;;;;18.84;64.43;101307.53;5109491;27;45909;-83
2022/05/17 00:44:56;;;;;;;;;7.50;7.25;;;;;19.00;65.01;101327.19;5110736;27;45193;-83
2022/05/17 00:47:29;;;;;;;;;6.25;6.00;;;;;19.06;64.71;101338.84;5109261;27;45246;-83
2022/05/17 00:50:08;;;;;;;;;5.50;5.25;;;;;18.88;64.91;101311.13;5091788;27;45218;-83
2022/05/17 00:52:45;;;;;;;;;8.00;7.75;;;;;18.95;64.62;101324.50;5109554;27;45752;-83
2022/05/17 00:55:45;;;;;;;;;7.25;6.75;;;;;19.13;64.39;101349.53;5091726;27;45401;-83
2022/05/17 00:58:18;;;;;;;;;6.75;6.75;;;;;19.05;64.94;101337.03;5091736;27;45174;-83
2022/05/17 01:01:02;;;;;;;;;8.75;6.50;;;;;18.80;64.90;101295.06;5091024;27;45340;-83
2022/05/17 01:03:33;;;;;;;;;9.00;7.25;;;;;18.70;65.04;101282.53;5090843;27;47518;-83
2022/05/17 01:06:01;;;;;;;;;6.50;6.00;;;;;18.85;65.14;101314.63;5109665;27;45501;-83
2022/05/17 01:08:28;;;;;;;;;8.00;7.25;;;;;18.92;65.15;101329.81;5109546;27;45194;-83
2022/05/17 01:10:53;;;;;;;;;7.00;6.00;;;;;18.76;65.47;101301.22;5091065;27;45204;-83
2022/05/17 01:16:06;;;;;;;;;5.50;5.50;;;;;18.73;64.98;101303.88;5109073;27;45623;-83
2022/05/17 01:18:38;;;;;;;;;6.00;6.00;;;;;18.73;65.26;101310.09;5109494;27;45123;-83
2022/05/17 01:21:04;;;;;;;;;5.75;4.75;;;;;18.92;65.41;101344.91;5109096;27;45209;-83
2022/05/17 01:23:30;;;;;;;;;7.75;6.50;;;;;18.64;65.11;101293.09;5109476;27;45324;-83
2022/05/17 01:25:55;;;;;;;;;7.50;7.00;;;;;18.59;65.50;101297.47;5091258;27;45471;-83
2022/05/17 01:28:25;;;;;;;;;7.00;6.25;;;;;18.74;65.51;101326.94;5109450;27;45010;-83
2022/05/17 01:30:51;;;;;;;;;6.50;6.00;;;;;18.53;65.75;101293.88;5109459;27;45123;-83
2022/05/17 01:33:18;;;;;;;;;5.00;5.00;;;;;18.64;66.06;101311.72;5108836;27;45581;-83
2022/05/17 01:35:43;;;;;;;;;5.50;5.50;;;;;18.80;66.13;101345.66;5090437;27;45616;-83
2022/05/17 01:38:09;;;;;;;;;5.00;5.00;;;;;18.73;65.36;101327.84;5109771;27;44992;-83
2022/05/17 01:40:36;;;;;;;;;4.00;4.00;;;;;18.59;65.96;101295.69;5109503;27;45070;-83
2022/05/17 01:43:01;;;;;;;;;5.00;5.00;;;;;18.23;66.02;101238.53;5108289;27;45594;-82
2022/05/17 01:45:27;;;;;;;;;7.75;7.00;;;;;18.57;65.75;101294.81;5090424;27;45367;-83
2022/05/17 01:47:52;;;;;;;;;6.25;5.50;;;;;18.79;66.01;101335.88;5109662;27;45224;-83
2022/05/17 01:50:18;;;;;;;;;6.00;5.25;;;;;18.31;65.68;101259.91;5109197;27;45259;-83
2022/05/17 01:52:44;;;;;;;;;6.50;6.00;;;;;18.42;66.05;101276.91;5108820;27;45954;-83
2022/05/17 01:55:10;;;;;;;;;5.50;5.50;;;;;18.66;66.37;101326.81;5111748;27;45855;-83
2022/05/17 01:57:36;;;;;;;;;5.00;5.00;;;;;18.60;65.66;101325.88;5130028;27;45142;-83
2022/05/17 02:00:03;;;;;;;;;5.00;5.00;;;;;18.62;65.51;101316.13;5130503;27;45236;-83
2022/05/17 02:02:28;;;;;;;;;4.75;4.75;;;;;18.86;65.49;101344.81;5129206;27;45787;-84
2022/05/17 02:04:54;;;;;;;;;7.00;6.00;;;;;18.51;65.65;101279.63;5130118;27;46210;-84
2022/05/17 02:07:19;;;;;;;;;6.00;6.00;;;;;18.88;66.07;101322.66;5110603;27;45410;-84
2022/05/17 02:09:44;;;;;;;;;5.75;5.25;;;;;18.89;65.34;101319.13;5129979;27;45565;-83
2022/05/17 02:12:10;;;;;;;;;6.25;6.00;;;;;19.02;65.45;101350.34;5110874;27;46022;-84
2022/05/17 02:14:36;;;;;;;;;7.25;7.00;;;;;18.69;65.30;101288.72;5107582;27;45661;-83
2022/05/17 02:17:02;;;;;;;;;6.00;6.00;;;;;18.99;64.58;101336.97;5108868;27;44910;-83
2022/05/17 02:19:30;;;;;;;;;7.25;6.50;;;;;18.94;65.00;101317.38;5113626;27;45322;-82
2022/05/17 02:21:55;;;;;;;;;5.75;5.50;;;;;19.14;64.90;101356.66;5126976;27;45663;-83
2022/05/17 02:24:22;;;;;;;;;4.25;4.25;;;;;18.94;64.76;101325.38;5133268;27;45210;-83
2022/05/17 02:26:47;;;;;;;;;5.25;5.25;;;;;18.80;64.17;101292.38;5129899;27;45023;-85
2022/05/17 02:29:13;;;;;;;;;5.00;4.50;;;;;18.97;64.51;101321.88;5132819;27;45455;-83
2022/05/17 02:31:38;;;;;;;;;4.75;4.00;;;;;18.96;64.27;101320.06;5132498;27;45319;-84
2022/05/17 02:34:04;;;;;;;;;4.75;4.75;;;;;18.81;64.53;101283.50;5132708;27;45053;-84
2022/05/17 02:36:29;;;;;;;;;7.00;7.00;;;;;19.17;64.44;101341.59;5114011;27;45162;-84
2022/05/17 02:38:54;;;;;;;;;5.25;5.00;;;;;19.02;64.68;101310.38;5114754;27;45234;-83
2022/05/17 02:41:20;;;;;;;;;4.75;4.50;;;;;19.12;64.74;101321.13;5113760;27;47952;-83
2022/05/17 02:43:46;;;;;;;;;3.50;3.50;;;;;19.05;64.48;101317.47;5132688;27;45190;-83
2022/05/17 02:46:13;;;;;;;;;6.75;6.75;;;;;19.07;64.74;101323.75;5118855;27;45286;-84
2022/05/17 02:48:38;;;;;;;;;6.00;5.00;;;;;19.20;64.74;101340.72;5093348;27;45287;-84
2022/05/17 02:51:11;;;;;;;;;6.00;6.00;;;;;18.94;64.72;101282.75;5111995;27;45973;-83
2022/05/17 02:53:36;;;;;;;;;6.00;4.50;;;;;19.19;64.52;101322.94;5092045;27;45490;-83
2022/05/17 02:56:02;;;;;;;;;4.00;4.00;;;;;19.03;64.20;101285.50;5111728;27;45432;-82
2022/05/17 02:58:27;;;;;;;;;4.25;4.25;;;;;19.10;64.32;101301.53;5112066;27;45137;-84
2022/05/17 03:00:52;;;;;;;;;5.00;5.00;;;;;19.13;64.51;101313.13;5111609;27;45642;-84
2022/05/17 03:03:18;;;;;;;;;6.25;5.00;;;;;19.11;64.61;101308.66;5111040;27;45596;-84
2022/05/17 03:05:43;;;;;;;;;6.25;4.25;;;;;19.18;64.64;101314.06;5093271;27;45317;-84
2022/05/17 03:08:08;;;;;;;;;6.00;5.75;;;;;19.12;64.90;101300.69;5109646;27;48964;-83
2022/05/17 03:10:34;;;;;;;;;6.50;6.00;;;;;19.04;65.37;101297.94;5107925;27;47469;-84
2022/05/17 03:12:59;;;;;;;;;6.00;5.50;;;;;19.06;64.90;101311.25;5112226;27;44999;-83
2022/05/17 03:15:24;;;;;;;;;6.00;6.00;;;;;19.13;64.99;101333.56;5092437;27;45034;-84
2022/05/17 03:17:50;;;;;;;;;6.00;5.25;;;;;19.19;64.95;101334.50;5111450;27;45063;-84
2022/05/17 03:20:15;;;;;;;;;8.00;8.00;;;;;19.02;64.99;101299.72;5111197;27;45700;-84
2022/05/17 03:22:41;;;;;;;;;6.00;6.00;;;;;18.84;65.06;101277.34;5110688;27;45128;-84
2022/05/17 03:25:06;;;;;;;;;6.75;6.00;;;;;19.19;65.13;101338.94;5109910;27;45477;-84
2022/05/17 03:27:32;;;;;;;;;6.25;6.25;;;;;18.86;65.12;101295.09;5111436;27;45086;-83
2022/05/17 03:29:58;;;;;;;;;7.00;7.00;;;;;19.03;65.78;101341.47;5111465;27;45401;-83
2022/05/17 03:32:23;;;;;;;;;5.25;5.00;;;;;18.83;65.67;101324.38;5109796;27;45894;-84
2022/05/17 03:34:48;;;;;;;;;5.50;4.50;;;;;18.46;65.57;101267.16;5114645;27;45463;-84
2022/05/17 03:37:14;;;;;;;;;6.00;6.00;;;;;18.75;65.68;101323.41;5100884;27;45294;-83
2022/05/17 03:39:40;;;;;;;;;5.00;4.00;;;;;18.68;66.11;101322.47;5120068;27;45868;-82
2022/05/17 03:42:09;;;;;;;;;8.50;7.00;;;;;18.38;66.18;101282.16;5111375;27;45260;-84
2022/05/17 03:44:35;;;;;;;;;7.25;7.00;;;;;18.31;66.36;101276.75;5092515;27;45306;-83
2022/05/17 03:47:03;;;;;;;;;7.00;7.00;;;;;18.45;66.66;101303.53;5110237;27;45110;-84
2022/05/17 03:49:28;;;;;;;;;3.00;3.00;;;;;18.30;66.76;101290.06;5110519;27;47072;-84
2022/05/17 03:51:53;;;;;;;;;6.00;6.00;;;;;18.53;66.80;101344.44;5111204;27;48115;-84
2022/05/17 03:54:22;;;;;;;;;6.00;6.00;;;;;18.55;66.41;101344.47;5110761;27;45011;-84
2022/05/17 03:56:47;;;;;;;;;7.00;7.00;;;;;18.23;66.61;101288.22;5111244;27;45221;-83
2022/05/17 03:59:13;;;;;;;;;8.00;7.00;;;;;18.52;66.65;101323.13;5091988;27;47310;-84
2022/05/17 04:01:39;;;;;;;;;8.00;6.75;;;;;18.46;66.73;101331.03;5111273;27;46006;-84
2022/05/17 04:04:05;;;;;;;;;6.50;6.50;;;;;18.28;66.99;101308.66;5112691;27;45071;-84
2022/05/17 04:06:30;;;;;;;;;6.50;6.25;;;;;18.26;67.29;101306.84;5131471;27;45408;-83
2022/05/17 04:08:55;;;;;;;;;7.50;7.00;;;;;18.18;66.71;101303.22;5131450;27;45359;-83
2022/05/17 04:11:21;;;;;;;;;9.00;6.00;;;;;18.11;66.74;101285.38;5129064;27;45144;-83
2022/05/17 04:13:46;;;;;;;;;6.00;5.00;;;;;18.19;67.23;101310.31;5118957;27;45206;-84
2022/05/17 04:16:12;;;;;;;;;6.00;5.25;;;;;18.44;67.07;101348.78;5109983;27;45286;-84
2022/05/17 04:18:38;;;;;;;;;6.25;5.75;;;;;18.22;66.87;101316.56;5108916;27;45586;-84
2022/05/17 04:21:04;;;;;;;;;6.75;6.75;;;;;18.25;67.42;101334.34;5110773;27;45253;-84
2022/05/17 04:23:30;;;;;;;;;5.75;5.75;;;;;18.01;67.26;101298.56;5108463;27;45227;-83
2022/05/17 04:25:56;;;;;;;;;7.00;6.75;;;;;18.09;67.07;101316.41;5107931;27;45217;-83
2022/05/17 04:28:22;;;;;;;;;8.75;7.25;;;;;18.28;67.83;101345.03;5111699;27;45810;-83
2022/05/17 04:30:47;;;;;;;;;6.00;5.75;;;;;18.31;67.62;101356.59;5127974;27;45188;-83
2022/05/17 04:33:13;;;;;;;;;4.00;4.00;;;;;18.17;67.80;101336.00;5130936;27;45390;-83
2022/05/17 04:35:40;;;;;;;;;6.50;6.00;;;;;18.26;67.91;101360.06;5130036;27;45042;-83
2022/05/17 04:38:07;;;;;;;;;8.00;7.75;;;;;17.59;67.71;101256.31;5129230;27;45292;-83
2022/05/17 04:40:33;;;;;;;;;7.25;7.25;;;;;17.99;67.72;101332.22;5109550;27;45700;-84
2022/05/17 04:42:58;;;;;;;;;9.00;8.75;;;;;18.16;67.85;101371.47;5130128;27;45113;-83
2022/05/17 04:45:24;;;;;;;;;6.75;5.75;;;;;17.80;68.21;101306.25;5126593;27;45589;-83
2022/05/17 04:47:49;;;;;;;;;7.00;7.00;;;;;18.03;67.89;101344.72;5125536;27;45587;-83
2022/05/17 04:50:17;;;;;;;;;10.00;9.50;;;;;18.04;68.05;101346.50;5122819;27;44949;-83
2022/05/17 04:52:43;;;;;;;;;6.50;6.50;;;;;17.53;68.28;101254.44;5129895;27;45130;-83
2022/05/17 04:55:09;;;;;;;;;8.50;7.75;;;;;18.12;68.08;101353.66;5130546;27;45094;-84
2022/05/17 04:57:35;;;;;;;;;12.50;9.25;;;;;18.06;68.03;101349.16;5130543;27;45236;-83
2022/05/17 05:00:07;;;;;;;;;8.50;8.00;;;;;18.02;68.22;101323.38;5126560;27;45252;-84
2022/05/17 05:02:32;;;;;;;;;7.75;7.50;;;;;18.14;68.21;101351.94;5109230;27;45574;-84
2022/05/17 05:04:58;;;;;;;;;7.25;7.25;;;;;17.79;68.48;101281.44;5111770;27;45478;-83
2022/05/17 05:07:23;;;;;;;;;7.75;7.75;;;;;18.07;68.21;101340.31;5091792;27;47287;-83
2022/05/17 05:09:48;;;;;;;;;8.00;8.00;;;;;17.89;68.25;101313.47;5095419;27;45681;-84
2022/05/17 05:12:14;;;;;;;;;6.50;6.50;;;;;18.13;68.88;101344.81;5073998;27;45750;-84
2022/05/17 05:14:39;;;;;;;;;9.00;8.50;;;;;18.25;68.12;101374.25;5103176;27;45481;-83
2022/05/17 05:17:04;;;;;;;;;8.75;7.75;;;;;18.44;67.85;101402.91;5108961;27;46082;-85
2022/05/17 05:19:30;;;;;;;;;6.25;5.75;;;;;17.93;68.22;101300.25;5125614;27;45145;-82
2022/05/17 05:21:55;;;;;;;;;7.50;7.50;;;;;18.27;67.58;101338.81;5126000;27;45223;-83
2022/05/17 05:24:21;;;;;;;;;10.50;9.75;;;;;18.47;67.35;101357.69;5123213;27;45136;-83
2022/05/17 05:26:46;;;;;;;;;6.75;6.75;;;;;18.79;67.67;101402.47;5119634;27;46382;-84
2022/05/17 05:29:11;;;;;;;;;9.50;8.25;;;;;18.72;67.22;101366.00;5104458;27;45560;-83
2022/05/17 05:31:37;;;;;;;;;10.25;8.75;;;;;18.81;67.16;101377.63;5114644;27;45335;-83
2022/05/17 05:34:02;;;;;;;;;10.00;8.25;;;;;18.68;66.86;101350.81;5110058;27;45162;-82
2022/05/17 05:36:28;;;;;;;;;8.25;8.00;;;;;18.98;67.06;101390.25;5114613;27;45391;-82
2022/05/17 05:38:54;;;;;;;;;12.00;9.25;;;;;18.73;67.38;101334.06;5108233;27;45481;-82
2022/05/17 05:41:19;;;;;;;;;10.50;10.50;;;;;18.40;66.83;101283.94;5103169;27;45556;-83
2022/05/17 05:43:45;;;;;;;;;11.25;9.75;;;;;18.70;67.11;101333.13;5090258;27;45332;-83
2022/05/17 05:46:11;;;;;;;;;13.00;11.50;;;;;18.73;66.73;101341.16;5092486;27;46148;-82
2022/05/17 05:48:36;;;;;;;;;11.00;10.50;;;;;18.77;66.57;101351.84;5109244;27;45423;-81
2022/05/17 05:51:02;;;;;;;;;13.00;12.00;;;;;18.99;66.97;101384.91;5075351;27;45706;-81
2022/05/17 05:53:28;;;;;;;;;9.25;9.25;;;;;18.91;66.54;101370.63;5110329;27;45350;-82
2022/05/17 05:56:01;;;;;;;;;13.25;13.00;;;;;18.78;66.51;101340.31;5100055;27;47115;-83
2022/05/17 05:58:30;;;;;;;;;13.25;13.25;;;;;18.72;66.26;101320.72;5089431;27;45292;-83
2022/05/17 06:00:56;;;;;;;;;8.50;8.25;;;;;18.97;66.43;101365.38;5122072;27;45205;-83
2022/05/17 06:03:21;;;;;;;;;16.25;12.75;;;;;18.98;66.49;101367.16;5101649;27;45390;-82
2022/05/17 06:05:46;;;;;;;;;15.75;14.75;;;;;19.17;66.40;101400.22;5119330;27;45978;-82
2022/05/17 06:08:13;;;;;;;;;11.25;11.25;;;;;19.08;66.76;101370.81;5103808;27;45472;-83
2022/05/17 06:10:41;;;;;;;;;13.00;12.50;;;;;19.19;66.63;101376.22;5121486;27;45349;-82
2022/05/17 06:13:07;;;;;;;;;13.00;13.00;;;;;19.28;65.71;101389.66;5094845;27;45842;-83
2022/05/17 06:15:32;;;;;;;;;12.00;12.00;;;;;19.23;65.89;101370.94;5097286;27;45766;-83
2022/05/17 06:18:01;;;;;;;;;14.25;12.25;;;;;19.37;66.22;101386.19;5092220;27;45418;-82
2022/05/17 06:20:26;;;;;;;;;13.50;12.25;;;;;19.35;65.89;101378.16;5091927;27;45843;-83
2022/05/17 06:22:51;;;;;;;;;12.00;10.00;;;;;19.22;66.08;101352.28;5095571;27;45706;-83
2022/05/17 06:25:17;;;;;;;;;13.00;12.25;;;;;19.49;66.52;101403.16;5110771;27;45984;-82
2022/05/17 06:27:42;;;;;;;;;13.50;12.25;;;;;19.66;66.30;101416.69;5111030;27;45874;-82
2022/05/17 06:30:08;;;;;;;;;13.00;12.75;;;;;19.61;66.59;101391.75;5091496;27;45813;-83
2022/05/17 06:32:34;;;;;;;;;15.00;13.75;;;;;19.63;65.82;101392.66;5110773;27;45655;-83
2022/05/17 06:34:59;;;;;;;;;16.50;14.75;;;;;19.52;65.83;101360.53;5113178;27;45599;-82
2022/05/17 06:37:24;;;;;;;;;16.00;14.00;;;;;19.77;65.75;101384.75;5094162;27;45461;-83
2022/05/17 06:39:50;;;;;;;;;12.25;11.75;;;;;19.80;65.80;101383.00;5113883;27;45482;-83
2022/05/17 06:42:15;;;;;;;;;14.00;13.00;;;;;19.79;66.27;101370.53;5113527;27;45515;-83
2022/05/17 06:44:40;;;;;;;;;15.00;13.50;;;;;19.73;66.23;101350.94;5113126;27;46184;-83
2022/05/17 06:47:07;;;;;;;;;13.50;11.75;;;;;20.05;65.88;101405.41;5113494;27;45333;-83
2022/05/17 06:49:36;;;;;;;;;11.25;10.50;;;;;20.16;66.32;101407.25;5094854;27;45576;-83
2022/05/17 06:52:03;;;;;;;;;11.50;10.50;;;;;20.12;65.78;101397.44;5113718;27;45359;-83
2022/05/17 06:54:28;;;;;;;;;12.25;10.25;;;;;20.01;64.94;101368.03;5094459;27;47364;-82
2022/05/17 06:56:53;;;;;;;;;9.75;9.50;;;;;19.99;64.86;101345.75;5114086;27;45734;-82
2022/05/17 06:59:19;;;;;;;;;15.75;13.75;;;;;20.11;64.81;101351.16;5094201;27;45493;-83
2022/05/17 07:01:44;;;;;;;;;8.75;8.50;;;;;20.31;64.25;101386.88;5113193;27;45334;-83
2022/05/17 07:04:10;;;;;;;;;9.00;8.25;;;;;20.20;64.19;101361.00;5094582;27;47269;-83
2022/05/17 07:06:35;;;;;;;;;9.75;8.75;;;;;20.14;64.29;101342.28;5112008;27;45451;-83
2022/05/17 07:09:01;;;;;;;;;9.00;8.00;;;;;20.37;63.75;101372.66;5113564;27;45666;-83
2022/05/17 07:14:10;;;;;;;;;7.00;6.75;;;;;20.50;63.16;101371.84;5092094;27;45741;-83
2022/05/17 07:16:36;;;;;;;;;7.75;7.75;;;;;20.67;62.72;101387.03;5092256;27;45429;-83
2022/05/17 07:19:01;;;;;;;;;8.00;7.75;;;;;20.43;62.36;101327.28;5074265;27;45426;-83
2022/05/17 07:21:27;;;;;;;;;6.50;6.50;;;;;20.66;61.97;101366.56;5091712;27;45541;-83
2022/05/17 07:23:52;;;;;;;;;6.75;6.75;;;;;20.83;61.33;101375.50;5092325;27;52185;-83
2022/05/17 07:26:18;;;;;;;;;5.75;5.75;;;;;20.68;60.64;101343.41;5073627;27;45717;-83
2022/05/17 07:28:46;;;;;;;;;7.25;6.50;;;;;20.97;61.27;101392.47;5092123;27;45478;-84
2022/05/17 07:31:12;;;;;;;;;6.50;6.00;;;;;20.87;61.04;101367.50;5091993;27;45442;-82
2022/05/17 07:33:38;;;;;;;;;7.25;6.50;;;;;20.91;60.59;101365.72;5092000;27;46697;-83
2022/05/17 07:36:05;;;;;;;;;8.75;8.50;;;;;21.16;60.37;101395.19;5073457;27;45474;-83
2022/05/17 07:38:31;;;;;;;;;8.00;7.00;;;;;20.96;60.42;101360.41;5073254;27;45408;-83
2022/05/17 07:40:56;;;;;;;;;9.00;7.00;;;;;20.84;59.79;101323.88;5090693;27;45546;-83
2022/05/17 07:43:22;;;;;;;;;8.25;6.25;;;;;21.08;59.76;101358.66;5091054;27;45559;-83
2022/05/17 07:45:50;;;;;;;;;8.25;7.25;;;;;21.36;60.75;101399.69;5091690;27;45371;-83
2022/05/17 07:48:17;;;;;;;;;6.00;6.00;;;;;21.16;60.50;101360.41;5073078;27;45485;-83
2022/05/17 07:50:42;;;;;;;;;8.00;7.50;;;;;21.43;60.11;101399.69;5092039;27;45597;-83
2022/05/17 07:53:10;;;;;;;;;7.75;7.75;;;;;21.22;58.79;101349.72;5092020;27;46226;-83
2022/05/17 07:55:38;;;;;;;;;7.00;6.75;;;;;21.15;58.78;101332.81;5091648;27;46010;-83
2022/05/17 07:58:05;;;;;;;;;8.50;8.50;;;;;21.31;58.67;101353.34;5091686;27;45556;-83
2022/05/17 08:00:31;;;;;;;;;5.50;5.50;;;;;21.59;58.18;101402.38;5091473;27;45364;-83
2022/05/17 08:02:58;;;;;;;;;5.75;5.50;;;;;21.35;57.87;101352.44;5091845;27;45567;-83
2022/05/17 08:05:24;;;;;;;;;7.00;6.00;;;;;21.32;57.33;101338.19;5091034;27;45916;-83
2022/05/17 08:07:49;;;;;;;;;5.50;4.50;;;;;21.48;57.69;101356.03;5092025;27;45635;-83
2022/05/17 08:10:15;;;;;;;;;4.00;4.00;;;;;21.57;57.08;101364.00;5091218;27;45519;-83
2022/05/17 08:12:41;;;;;;;;;6.00;5.25;;;;;21.40;56.96;101332.84;5091091;27;46373;-83
2022/05/17 08:15:07;;;;;;;;;7.25;5.00;;;;;21.84;56.24;101397.00;5091216;27;45874;-83
2022/05/17 08:17:33;;;;;;;;;5.50;5.00;;;;;21.45;55.15;101326.59;5091303;27;45449;-83
2022/05/17 08:19:58;;;;;;;;;7.25;7.00;;;;;21.77;54.98;101368.44;5072897;27;45413;-83
2022/05/17 08:22:24;;;;;;;;;7.00;7.00;;;;;21.68;54.80;101344.41;5072581;27;46100;-83
2022/05/17 08:27:42;;;;;;;;;6.00;6.00;;;;;21.91;54.52;101366.66;5090951;27;45558;-83
2022/05/17 08:30:14;;;;;;;;;5.50;5.00;;;;;22.07;55.13;101381.81;5072739;27;45524;-83
2022/05/17 08:35:52;;;;;;;;;5.50;5.50;;;;;21.98;53.78;101347.03;5090463;27;45469;-83
2022/05/17 08:38:33;;;;;;;;;7.00;6.00;;;;;22.24;53.51;101379.09;5090873;27;45762;-83
2022/05/17 08:41:23;;;;;;;;;6.25;5.25;;;;;22.34;52.67;101382.63;5091338;27;45490;-83
2022/05/17 08:43:51;;;;;;;;;4.25;4.00;;;;;22.39;50.85;101378.16;5090691;27;45398;-83
2022/05/17 08:46:54;;;;;;;;;5.00;5.00;;;;;22.45;50.65;101386.16;5090063;27;45943;-83
2022/05/17 08:49:26;;;;;;;;;7.25;6.75;;;;;22.51;50.36;101380.78;5090614;27;45310;-83
2022/05/17 08:52:32;;;;;;;;;7.00;6.00;;;;;22.59;50.35;101376.28;5072866;27;45443;-83
2022/05/17 08:55:02;;;;;;;;;5.25;5.25;;;;;22.57;50.32;101364.69;5047021;28;45593;-84
2022/05/17 08:57:38;;;;;;;;;6.50;5.25;;;;;22.68;50.78;101369.97;5029510;28;46032;-83
2022/05/17 09:00:09;;;;;;;;;7.00;6.25;;;;;22.86;50.56;101379.72;5071187;27;45544;-83
2022/05/17 09:02:59;;;;;;;;;7.50;7.50;;;;;22.91;49.87;101372.56;5090622;27;45558;-83
2022/05/17 09:05:34;;;;;;;;;6.00;5.00;;;;;22.95;50.09;101379.66;5089673;27;48047;-83
2022/05/17 09:08:34;;;;;;;;;6.25;6.00;;;;;23.01;50.58;101379.66;5072242;27;45963;-83
2022/05/17 09:11:28;;;;;;;;;5.75;5.75;;;;;22.98;49.30;101360.91;5081066;27;45556;-83
2022/05/17 09:14:04;;;;;;;;;6.50;5.50;;;;;23.16;49.38;101378.66;5111478;27;45448;-84
2022/05/17 09:16:34;;;;;;;;;6.00;6.00;;;;;23.14;48.93;101365.25;5091439;27;48688;-84
2022/05/17 09:18:59;;;;;;;;;9.00;8.50;;;;;23.09;48.47;101345.63;5110751;27;45443;-83
2022/05/17 09:21:53;;;;;;;;;7.00;7.00;;;;;23.14;49.03;101349.16;5110616;27;45531;-83
2022/05/17 09:24:21;;;;;;;;;8.25;7.25;;;;;23.28;48.54;101365.16;5107411;27;45671;-83
2022/05/17 09:26:52;;;;;;;;;7.00;6.75;;;;;23.25;48.93;101351.78;5110669;27;46519;-83
2022/05/17 09:29:29;;;;;;;;;8.75;7.50;;;;;23.22;48.71;101342.84;5110058;27;45315;-83
2022/05/17 09:32:01;;;;;;;;;7.75;7.75;;;;;23.46;48.26;101369.47;5110675;27;45327;-84
2022/05/17 09:34:33;;;;;;;;;7.00;6.75;;;;;23.44;48.27;101353.38;5091662;27;45496;-83
2022/05/17 09:37:05;;;;;;;;;6.25;6.25;;;;;23.57;47.89;101358.66;5110789;27;46506;-83
2022/05/17 09:39:31;;;;;;;;;6.75;6.75;;;;;23.52;47.30;101337.22;5110297;27;45641;-83
2022/05/17 09:42:01;;;;;;;;;5.75;4.75;;;;;23.41;47.00;101306.94;5110619;27;45598;-83
2022/05/17 09:44:30;;;;;;;;;4.00;3.50;;;;;23.74;46.69;101358.50;5092180;27;45470;-83
2022/05/17 09:46:59;;;;;;;;;5.00;5.00;;;;;23.61;47.78;101317.47;5110323;27;46058;-83
2022/05/17 09:52:46;;;;;;;;;6.00;6.00;;;;;23.71;46.69;101307.56;5110678;27;45664;-83
2022/05/17 09:55:14;;;;;;;;;5.25;5.25;;;;;23.99;45.85;101338.56;5110538;27;45594;-83
2022/05/17 09:57:58;;;;;;;;;5.25;5.25;;;;;24.10;47.21;101357.25;5110070;27;46029;-83
2022/05/17 10:00:25;;;;;;;;;5.25;5.25;;;;;24.02;45.94;101322.41;5109832;27;45869;-83
2022/05/17 10:02:50;;;;;;;;;3.50;3.50;;;;;24.25;45.51;101345.44;5110512;27;45390;-83
2022/05/17 10:05:24;;;;;;;;;6.00;4.75;;;;;24.31;45.50;101339.97;5109975;27;45492;-83
2022/05/17 10:08:02;;;;;;;;;4.00;3.00;;;;;24.26;44.56;101320.34;5110601;27;45306;-83
2022/05/17 10:10:32;;;;;;;;;4.00;3.50;;;;;24.45;45.56;101346.09;5091338;27;45960;-84
2022/05/17 10:13:07;;;;;;;;;2.75;2.75;;;;;24.49;43.64;101337.09;5092211;27;45680;-83
2022/05/17 10:15:37;;;;;;;;;2.50;2.50;;;;;24.61;44.67;101339.59;5109714;27;45838;-83
2022/05/17 10:18:10;;;;;;;;;4.50;4.00;;;;;24.53;44.18;101302.97;5109926;27;46344;-84
2022/05/17 10:20:43;;;;;;;;;2.00;2.00;;;;;24.86;43.64;101337.44;5109832;27;45916;-83
2022/05/17 10:23:27;;;;;;;;;2.50;2.25;;;;;25.00;43.67;101329.19;5110144;27;45386;-83
2022/05/17 10:26:22;;;;;;;;;3.00;3.00;;;;;25.19;43.13;101332.50;5109966;27;45732;-83
2022/05/17 10:29:09;;;;;;;;;3.25;3.25;;;;;25.12;42.09;101310.19;5108064;27;46750;-84
2022/05/17 10:31:43;;;;;;;;;4.00;4.00;;;;;24.89;42.87;101269.31;5109824;27;45986;-84
2022/05/17 10:34:38;;;;;;;;;4.50;3.75;;;;;25.23;42.51;101314.50;5110109;27;45796;-84
2022/05/17 10:37:14;;;;;;;;;3.00;3.00;;;;;25.23;41.97;101303.75;5091499;27;45683;-83
2022/05/17 10:39:44;;;;;;;;;2.25;2.25;;;;;25.06;41.95;101260.94;5091246;27;47266;-84
2022/05/17 10:42:10;;;;;;;;;5.00;3.50;;;;;25.20;41.64;101270.59;5111159;27;45952;-83
2022/05/17 10:44:37;;;;;;;;;4.00;3.75;;;;;25.45;40.67;101297.94;5113547;27;45870;-83
2022/05/17 10:47:11;;;;;;;;;3.00;3.00;;;;;25.51;40.95;101296.94;5113562;27;45586;-83
2022/05/17 10:49:49;;;;;;;;;3.75;3.00;;;;;25.55;41.66;101295.09;5094131;27;48419;-83
2022/05/17 10:52:52;;;;;;;;;3.00;3.00;;;;;25.61;40.90;101295.84;5113362;27;45646;-83
2022/05/17 10:55:42;;;;;;;;;4.50;4.25;;;;;25.36;41.54;101235.31;5094050;27;45501;-83
2022/05/17 10:58:25;;;;;;;;;2.00;2.00;;;;;25.69;41.87;101291.22;5113360;27;45724;-83
2022/05/17 11:00:58;;;;;;;;;3.00;3.00;;;;;25.72;41.54;101280.41;5094490;27;47112;-83
2022/05/17 11:03:50;;;;;;;;;3.25;3.25;;;;;25.96;41.90;101295.22;5112426;27;45528;-83
2022/05/17 11:06:57;;;;;;;;;4.75;4.00;;;;;26.18;40.62;101290.25;5113329;27;45634;-83
2022/05/17 11:09:28;;;;;;;;;3.00;3.00;;;;;26.24;41.70;101282.03;5028436;28;45528;-84
2022/05/17 11:12:10;;;;;;;;;5.25;5.00;;;;;26.30;41.58;101282.81;5101858;27;45574;-83
2022/05/17 11:14:43;;;;;;;;;5.00;4.75;;;;;26.32;42.11;101275.63;5112882;27;45991;-83
2022/05/17 11:17:08;;;;;;;;;2.50;2.50;;;;;26.39;41.48;101280.81;5094661;27;45664;-84
2022/05/17 11:19:41;;;;;;;;;4.00;3.00;;;;;26.22;40.71;101248.84;5112248;27;45575;-83
2022/05/17 11:22:12;;;;;;;;;3.00;3.00;;;;;26.24;40.61;101238.91;5112400;27;46500;-84
2022/05/17 11:24:58;;;;;;;;;4.00;4.00;;;;;26.40;40.82;101262.81;5112538;27;45991;-83
2022/05/17 11:27:57;;;;;;;;;4.00;4.00;;;;;26.41;39.99;101262.81;5112679;27;45400;-83
2022/05/17 11:30:28;;;;;;;;;5.00;4.75;;;;;26.37;41.45;101253.03;5093554;27;45830;-83
2022/05/17 11:33:28;;;;;;;;;4.75;4.50;;;;;26.54;41.82;101266.13;5093839;27;47427;-84
2022/05/17 11:36:15;;;;;;;;;3.00;3.00;;;;;26.48;41.05;101233.94;5113440;27;45878;-83
2022/05/17 11:38:47;;;;;;;;;4.25;4.00;;;;;26.75;40.04;101257.56;5111947;27;45511;-84
2022/05/17 11:41:19;;;;;;;;;4.75;4.00;;;;;26.95;41.01;101254.38;5111827;27;45506;-84
2022/05/17 11:43:48;;;;;;;;;5.00;4.00;;;;;26.98;41.04;101221.91;5112437;27;45409;-84
2022/05/17 11:46:29;;;;;;;;;5.50;5.00;;;;;27.15;39.92;101248.50;5111806;27;45300;-84
2022/05/17 11:48:59;;;;;;;;;5.00;5.00;;;;;27.11;40.19;101240.53;5093924;27;45719;-84